createdAt,value
2019-03-20T00:00:35.941Z,24.75
2019-03-20T00:03:06.859Z,23.02
2019-03-20T00:05:38.092Z,22.17
2019-03-20T00:08:09.165Z,21.27
2019-03-20T00:10:40.053Z,21.25
2019-03-20T00:13:11.092Z,19.17
2019-03-20T00:15:42.222Z,24.25
2019-03-20T00:18:13.856Z,19.70
2019-03-20T00:20:45.263Z,22.87
2019-03-20T00:23:16.307Z,21.63
2019-03-20T00:25:47.197Z,22.67
2019-03-20T00:28:17.934Z,24.00
2019-03-20T00:30:48.828Z,24.07
2019-03-20T00:33:20.513Z,24.15
2019-03-20T00:35:51.348Z,22.73
2019-03-20T00:38:22.097Z,20.92
2019-03-20T00:40:52.833Z,22.00
2019-03-20T00:43:23.593Z,20.00
2019-03-20T00:45:54.348Z,19.40
2019-03-20T00:48:25.394Z,19.32
2019-03-20T00:50:56.429Z,17.73
2019-03-20T00:53:27.178Z,21.85
2019-03-20T00:55:57.909Z,20.35
2019-03-20T00:58:29.725Z,19.60
2019-03-20T01:01:00.605Z,22.37
2019-03-20T01:03:31.430Z,19.92
2019-03-20T01:06:02.173Z,21.02
2019-03-20T01:08:32.926Z,20.25
2019-03-20T01:11:04.014Z,20.80
2019-03-20T01:13:34.746Z,20.68
2019-03-20T01:16:05.492Z,22.13
2019-03-20T01:18:36.210Z,17.85
2019-03-20T01:21:07.304Z,21.90
2019-03-20T01:23:38.046Z,21.73
2019-03-20T01:26:08.877Z,21.02
2019-03-20T01:28:39.627Z,22.40
2019-03-20T01:31:10.368Z,22.37
2019-03-20T01:33:41.133Z,21.75
2019-03-20T01:36:12.227Z,21.50
2019-03-20T01:38:43.027Z,21.40
2019-03-20T01:41:13.771Z,21.12
2019-03-20T01:43:44.866Z,19.12
2019-03-20T01:46:15.595Z,19.32
2019-03-20T01:48:46.688Z,19.32
2019-03-20T01:51:21.653Z,21.57
2019-03-20T01:53:52.417Z,19.20
2019-03-20T01:56:23.205Z,20.52
2019-03-20T01:58:54.250Z,20.27
2019-03-20T02:01:24.987Z,20.32
2019-03-20T02:03:56.019Z,21.65
2019-03-20T02:06:27.782Z,18.90
2019-03-20T02:08:58.617Z,20.40
2019-03-20T02:11:29.428Z,19.37
2019-03-20T02:14:00.490Z,20.95
2019-03-20T02:16:31.667Z,19.70
2019-03-20T02:19:02.481Z,20.52
2019-03-20T02:21:33.251Z,19.85
2019-03-20T02:24:04.097Z,20.63
2019-03-20T02:26:35.136Z,24.20
2019-03-20T02:29:05.955Z,17.95
2019-03-20T02:31:36.714Z,18.23
2019-03-20T02:34:07.463Z,16.50
2019-03-20T02:36:38.207Z,17.50
2019-03-20T02:39:08.962Z,18.62
2019-03-20T02:41:39.715Z,18.55
2019-03-20T02:44:10.474Z,16.15
2019-03-20T02:46:41.224Z,21.07
2019-03-20T02:49:12.310Z,21.00
2019-03-20T02:51:44.045Z,21.05
2019-03-20T02:54:14.868Z,20.55
2019-03-20T02:56:45.614Z,21.25
2019-03-20T02:59:16.386Z,17.10
2019-03-20T03:01:47.417Z,20.85
2019-03-20T03:04:18.207Z,18.32
2019-03-20T03:06:49.335Z,19.37
2019-03-20T03:09:20.101Z,18.07
2019-03-20T03:11:51.282Z,19.13
2019-03-20T03:14:25.254Z,23.87
2019-03-20T03:16:55.991Z,22.35
2019-03-20T03:19:26.744Z,25.10
2019-03-20T03:21:57.779Z,17.92
2019-03-20T03:24:28.854Z,20.50
2019-03-20T03:27:00.195Z,19.98
2019-03-20T03:29:32.068Z,21.37
2019-03-20T03:32:03.153Z,18.40
2019-03-20T03:34:33.978Z,19.60
2019-03-20T03:37:04.799Z,22.37
2019-03-20T03:39:35.540Z,19.70
2019-03-20T03:42:07.687Z,20.95
2019-03-20T03:44:41.007Z,20.75
2019-03-20T03:47:12.798Z,21.15
2019-03-20T03:49:43.572Z,20.57
2019-03-20T03:52:14.384Z,22.02
2019-03-20T03:54:45.209Z,25.05
2019-03-20T03:57:16.063Z,26.10
2019-03-20T03:59:46.824Z,23.32
2019-03-20T04:02:17.700Z,21.47
2019-03-20T04:04:48.462Z,20.40
2019-03-20T04:07:19.695Z,22.87
2019-03-20T04:09:51.489Z,20.35
2019-03-20T04:12:22.203Z,19.50
2019-03-20T04:14:53.026Z,16.77
2019-03-20T04:17:25.344Z,19.12
2019-03-20T04:19:56.849Z,19.27
2019-03-20T04:22:29.208Z,20.48
2019-03-20T04:25:01.381Z,18.62
2019-03-20T04:27:32.200Z,20.82
2019-03-20T04:30:03.662Z,17.40
2019-03-20T04:32:34.477Z,21.02
2019-03-20T04:35:05.460Z,20.15
2019-03-20T04:37:36.218Z,18.67
2019-03-20T04:40:07.415Z,19.77
2019-03-20T04:42:38.395Z,22.02
2019-03-20T04:45:12.300Z,20.32
2019-03-20T04:47:42.582Z,19.23
2019-03-20T04:50:13.497Z,20.25
2019-03-20T04:52:44.232Z,21.30
2019-03-20T04:55:16.212Z,20.68
2019-03-20T04:57:47.247Z,19.07
2019-03-20T05:00:18.541Z,19.30
2019-03-20T05:02:49.301Z,19.07
2019-03-20T05:05:20.770Z,22.40
2019-03-20T05:07:51.592Z,18.52
2019-03-20T05:10:22.686Z,21.57
2019-03-20T05:12:53.750Z,19.77
2019-03-20T05:15:24.775Z,21.30
2019-03-20T05:17:55.840Z,23.10
2019-03-20T05:20:26.568Z,18.40
2019-03-20T05:22:57.598Z,17.25
2019-03-20T05:25:28.731Z,17.73
2019-03-20T05:27:59.767Z,20.85
2019-03-20T05:30:30.581Z,19.37
2019-03-20T05:33:01.289Z,18.45
2019-03-20T05:35:33.026Z,18.35
2019-03-20T05:38:03.802Z,21.07
2019-03-20T05:40:34.589Z,21.33
2019-03-20T05:43:05.460Z,19.57
2019-03-20T05:45:36.267Z,19.50
2019-03-20T05:48:07.370Z,19.92
2019-03-20T05:50:38.597Z,19.05
2019-03-20T05:53:09.320Z,22.67
2019-03-20T05:55:40.512Z,21.93
2019-03-20T05:58:11.308Z,21.52
2019-03-20T06:00:42.110Z,22.07
2019-03-20T06:03:13.301Z,22.35
2019-03-20T06:05:44.054Z,29.40
2019-03-20T06:08:15.213Z,26.50
2019-03-20T06:10:45.958Z,24.67
2019-03-20T06:13:39.411Z,20.45
2019-03-20T06:16:10.583Z,23.10
2019-03-20T06:18:41.691Z,29.07
2019-03-20T06:21:12.440Z,24.35
2019-03-20T06:23:47.701Z,22.65
2019-03-20T06:26:18.425Z,19.20
2019-03-20T06:28:49.133Z,25.17
2019-03-20T06:31:19.887Z,23.65
2019-03-20T06:33:50.860Z,20.77
2019-03-20T06:36:22.382Z,23.52
2019-03-20T06:38:53.679Z,27.77
2019-03-20T06:41:24.404Z,23.40
2019-03-20T06:43:55.781Z,25.35
2019-03-20T06:46:26.554Z,28.55
2019-03-20T06:48:57.281Z,22.17
2019-03-20T06:51:28.319Z,26.48
2019-03-20T06:53:59.076Z,22.42
2019-03-20T06:56:29.943Z,28.40
2019-03-20T06:59:51.368Z,33.75
2019-03-20T07:02:22.167Z,22.30
2019-03-20T07:05:38.069Z,23.93
2019-03-20T07:08:08.773Z,24.03
2019-03-20T07:11:18.015Z,24.12
2019-03-20T07:13:50.652Z,32.20
2019-03-20T07:16:21.572Z,30.43
2019-03-20T07:18:52.335Z,31.80
2019-03-20T07:21:23.165Z,20.68
2019-03-20T07:23:53.881Z,27.80
2019-03-20T07:26:25.092Z,26.25
2019-03-20T07:28:55.817Z,24.53
2019-03-20T07:31:26.571Z,24.07
2019-03-20T07:33:57.661Z,19.45
2019-03-20T07:36:28.755Z,22.07
2019-03-20T07:38:59.565Z,25.23
2019-03-20T07:41:30.303Z,18.20
2019-03-20T07:44:01.042Z,21.55
2019-03-20T07:46:32.100Z,27.10
2019-03-20T07:49:02.916Z,27.42
2019-03-20T07:51:33.644Z,21.07
2019-03-20T07:54:04.846Z,21.23
2019-03-20T07:56:35.671Z,25.23
2019-03-20T07:59:06.670Z,35.58
2019-03-20T08:01:37.442Z,24.92
2019-03-20T08:04:08.186Z,26.25
2019-03-20T08:06:39.002Z,21.95
2019-03-20T08:09:09.738Z,29.18
2019-03-20T08:11:40.795Z,28.98
2019-03-20T08:14:12.101Z,25.23
2019-03-20T08:16:43.161Z,26.68
2019-03-20T08:19:13.906Z,26.67
2019-03-20T08:21:44.733Z,30.62
2019-03-20T08:24:16.025Z,20.88
2019-03-20T08:26:46.754Z,23.87
2019-03-20T08:29:17.782Z,28.70
2019-03-20T08:31:48.517Z,24.60
2019-03-20T08:34:19.916Z,30.62
2019-03-20T08:36:50.653Z,16.00
2019-03-20T08:39:21.407Z,23.65
2019-03-20T08:41:52.200Z,20.68
2019-03-20T08:44:22.964Z,17.20
2019-03-20T08:49:42.708Z,30.12
2019-03-20T08:52:13.877Z,21.23
2019-03-20T08:54:45.015Z,27.87
2019-03-20T08:57:15.792Z,22.00
2019-03-20T08:59:46.975Z,22.73
2019-03-20T09:02:17.796Z,24.47
2019-03-20T09:04:48.513Z,26.73
2019-03-20T09:07:19.371Z,24.98
2019-03-20T09:09:50.887Z,31.20
2019-03-20T09:12:22.412Z,17.33
2019-03-20T09:14:53.604Z,19.77
2019-03-20T09:17:24.351Z,26.30
2019-03-20T09:19:55.068Z,24.57
2019-03-20T09:22:26.153Z,19.67
2019-03-20T09:24:57.741Z,18.70
2019-03-20T09:27:28.491Z,17.12
2019-03-20T09:29:59.497Z,18.25
2019-03-20T09:32:30.225Z,16.05
2019-03-20T09:35:00.966Z,25.52
2019-03-20T09:37:32.694Z,18.15
2019-03-20T09:40:03.865Z,18.67
2019-03-20T09:42:35.322Z,19.00
2019-03-20T09:45:07.017Z,16.17
2019-03-20T09:47:37.767Z,16.42
2019-03-20T09:50:10.555Z,13.53
2019-03-20T09:52:41.372Z,14.70
2019-03-20T09:55:12.440Z,25.97
2019-03-20T09:57:43.289Z,20.23
2019-03-20T10:00:16.733Z,14.83
2019-03-20T10:02:47.549Z,14.95
2019-03-20T10:05:18.443Z,15.08
2019-03-20T10:07:49.517Z,17.37
2019-03-20T10:10:21.719Z,16.70
2019-03-20T10:12:52.574Z,21.70
2019-03-20T10:15:23.600Z,15.95
2019-03-20T10:17:54.598Z,17.23
2019-03-20T10:20:25.589Z,19.25
2019-03-20T10:22:56.531Z,16.27
2019-03-20T10:25:27.833Z,14.38
2019-03-20T10:27:58.658Z,17.10
2019-03-20T10:30:29.946Z,17.20
2019-03-20T10:33:00.954Z,13.83
2019-03-20T10:35:32.016Z,15.00
2019-03-20T10:38:02.814Z,14.10
2019-03-20T10:40:34.092Z,15.28
2019-03-20T10:43:05.034Z,16.85
2019-03-20T10:45:36.099Z,15.43
2019-03-20T10:48:06.975Z,12.80
2019-03-20T10:50:38.081Z,16.25
2019-03-20T10:53:08.926Z,15.65
2019-03-20T10:55:40.081Z,13.68
2019-03-20T10:58:11.201Z,15.90
2019-03-20T11:00:42.378Z,12.37
2019-03-20T11:03:13.298Z,14.90
2019-03-20T11:05:44.162Z,14.87
2019-03-20T11:08:15.032Z,13.93
2019-03-20T11:10:45.953Z,16.07
2019-03-20T11:13:16.785Z,14.25
2019-03-20T11:15:47.987Z,13.00
2019-03-20T11:18:19.072Z,11.73
2019-03-20T11:20:50.174Z,11.03
2019-03-20T11:23:20.965Z,10.63
2019-03-20T11:25:53.188Z,14.85
2019-03-20T11:28:23.990Z,10.60
2019-03-20T11:30:55.243Z,10.15
2019-03-20T11:33:26.480Z,9.95
2019-03-20T11:35:57.405Z,8.98
2019-03-20T11:38:28.268Z,8.43
2019-03-20T11:40:59.129Z,10.43
2019-03-20T11:43:30.111Z,7.33
2019-03-20T11:46:00.945Z,9.35
2019-03-20T11:48:33.409Z,8.20
2019-03-20T11:51:04.828Z,10.10
2019-03-20T11:53:35.672Z,9.23
2019-03-20T11:56:06.701Z,8.75
2019-03-20T11:58:37.555Z,7.33
2019-03-20T12:01:08.416Z,8.03
2019-03-20T12:03:39.657Z,11.40
2019-03-20T12:06:10.496Z,9.55
2019-03-20T12:08:41.322Z,8.85
2019-03-20T12:11:12.425Z,8.48
2019-03-20T12:13:43.298Z,9.40
2019-03-20T12:16:14.729Z,9.40
2019-03-20T12:18:45.587Z,6.30
2019-03-20T12:21:16.401Z,7.58
2019-03-20T12:23:47.626Z,6.07
2019-03-20T12:26:18.785Z,8.50
2019-03-20T12:28:50.345Z,5.90
2019-03-20T12:31:21.425Z,5.15
2019-03-20T12:33:53.409Z,3.77
2019-03-20T12:36:24.249Z,4.23
2019-03-20T12:38:55.170Z,4.55
2019-03-20T12:41:26.391Z,3.65
2019-03-20T12:43:57.233Z,2.33
2019-03-20T12:46:40.967Z,5.12
2019-03-20T12:49:00.622Z,5.50
2019-03-20T12:51:31.395Z,4.55
2019-03-20T12:54:02.165Z,8.53
2019-03-20T12:56:33.164Z,4.00
2019-03-20T12:59:04.029Z,3.22
2019-03-20T13:01:34.891Z,3.95
2019-03-20T13:04:05.818Z,4.12
2019-03-20T13:06:36.673Z,2.62
2019-03-20T13:09:08.585Z,4.22
2019-03-20T13:11:39.432Z,4.03
2019-03-20T13:14:10.274Z,4.30
2019-03-20T13:16:41.255Z,3.70
2019-03-20T13:19:12.105Z,3.10
2019-03-20T13:21:43.232Z,3.58
2019-03-20T13:24:14.354Z,4.05
2019-03-20T13:26:45.277Z,4.10
2019-03-20T13:29:16.138Z,4.95
2019-03-20T13:31:47.598Z,4.12
2019-03-20T13:34:18.704Z,7.35
2019-03-20T13:36:49.726Z,4.83
2019-03-20T13:39:20.552Z,6.58
2019-03-20T13:41:51.316Z,4.20
2019-03-20T13:44:22.161Z,5.33
2019-03-20T13:46:53.316Z,4.75
2019-03-20T13:49:24.195Z,4.20
2019-03-20T13:51:54.984Z,4.28
2019-03-20T13:54:25.809Z,4.87
2019-03-20T13:56:56.660Z,7.40
2019-03-20T13:59:27.428Z,4.83
2019-03-20T14:01:58.282Z,4.28
2019-03-20T14:04:29.452Z,3.77
2019-03-20T14:07:00.313Z,3.30
2019-03-20T14:09:31.099Z,3.05
2019-03-20T14:12:01.951Z,3.95
2019-03-20T14:14:33.462Z,3.87
2019-03-20T14:17:04.322Z,2.85
2019-03-20T14:19:35.165Z,3.33
2019-03-20T14:22:06.016Z,4.10
2019-03-20T14:24:36.842Z,2.85
2019-03-20T14:27:07.681Z,3.43
2019-03-20T14:29:39.658Z,2.72
2019-03-20T14:32:10.813Z,2.65
2019-03-20T14:34:41.654Z,4.35
2019-03-20T14:37:12.915Z,4.17
2019-03-20T14:39:43.788Z,2.67
2019-03-20T14:42:14.582Z,5.08
2019-03-20T14:44:45.728Z,3.40
2019-03-20T14:47:16.566Z,3.52
2019-03-20T14:49:47.525Z,3.25
2019-03-20T14:52:18.698Z,4.55
2019-03-20T14:54:49.513Z,6.45
2019-03-20T14:57:20.344Z,4.58
2019-03-20T14:59:52.138Z,5.72
2019-03-20T15:02:22.978Z,4.35
2019-03-20T15:04:54.408Z,5.62
2019-03-20T15:07:25.509Z,5.62
2019-03-20T15:09:56.364Z,3.50
2019-03-20T15:12:27.189Z,4.50
2019-03-20T15:15:07.632Z,5.46
2019-03-20T15:17:38.520Z,6.37
2019-03-20T15:20:09.423Z,4.33
2019-03-20T15:22:40.190Z,5.60
2019-03-20T15:25:11.025Z,4.40
2019-03-20T15:27:42.915Z,5.70
2019-03-20T15:30:14.919Z,6.25
2019-03-20T15:32:45.848Z,6.72
2019-03-20T15:35:16.901Z,6.10
2019-03-20T15:37:47.886Z,9.28
2019-03-20T15:40:18.958Z,6.03
2019-03-20T15:42:49.837Z,6.77
2019-03-20T15:45:21.847Z,8.28
2019-03-20T15:47:52.785Z,5.62
2019-03-20T15:50:23.766Z,7.72
2019-03-20T15:53:01.395Z,7.92
2019-03-20T15:55:32.455Z,7.70
2019-03-20T15:58:03.483Z,6.78
2019-03-20T16:00:34.525Z,6.90
2019-03-20T16:03:10.874Z,4.95
2019-03-20T16:05:41.808Z,4.45
2019-03-20T16:08:12.696Z,6.37
2019-03-20T16:10:43.657Z,5.83
2019-03-20T16:13:14.610Z,7.65
2019-03-20T16:15:45.543Z,6.60
2019-03-20T16:18:16.765Z,6.30
2019-03-20T16:20:47.638Z,7.20
2019-03-20T16:23:18.640Z,5.62
2019-03-20T16:25:50.042Z,6.95
2019-03-20T16:28:20.974Z,5.47
2019-03-20T16:30:52.154Z,4.70
2019-03-20T16:33:23.026Z,8.03
2019-03-20T16:35:54.635Z,4.92
2019-03-20T16:38:25.511Z,6.30
2019-03-20T16:40:56.321Z,8.13
2019-03-20T16:43:27.572Z,6.20
2019-03-20T16:45:58.440Z,6.28
2019-03-20T16:48:29.266Z,6.83
2019-03-20T16:51:00.249Z,7.12
2019-03-20T16:53:31.114Z,5.80
2019-03-20T16:56:01.913Z,7.00
2019-03-20T16:58:32.873Z,7.00
2019-03-20T17:01:03.917Z,7.78
2019-03-20T17:03:36.119Z,8.30
2019-03-20T17:06:07.160Z,7.20
2019-03-20T17:08:37.994Z,9.43
2019-03-20T17:11:08.874Z,7.97
2019-03-20T17:13:39.778Z,9.73
2019-03-20T17:16:10.743Z,8.20
2019-03-20T17:18:41.623Z,7.85
2019-03-20T17:21:12.674Z,6.03
2019-03-20T17:23:43.534Z,8.15
2019-03-20T17:26:15.061Z,7.08
2019-03-20T17:28:45.861Z,7.62
2019-03-20T17:31:16.759Z,6.57
2019-03-20T17:33:47.627Z,9.78
2019-03-20T17:36:18.859Z,7.35
2019-03-20T17:38:49.788Z,8.53
2019-03-20T17:41:20.637Z,8.00
2019-03-20T17:43:51.435Z,7.67
2019-03-20T17:46:22.308Z,6.33
2019-03-20T17:48:53.212Z,7.40
2019-03-20T17:51:24.426Z,6.12
2019-03-20T17:53:55.389Z,8.28
2019-03-20T17:56:26.280Z,7.03
2019-03-20T17:58:57.155Z,8.08
2019-03-20T18:01:28.110Z,7.33
2019-03-20T18:05:38.867Z,7.50
2019-03-20T18:08:09.879Z,9.83
2019-03-20T18:10:40.828Z,7.28
2019-03-20T18:13:11.791Z,7.75
2019-03-20T18:15:43.179Z,7.17
2019-03-20T18:18:14.436Z,9.65
2019-03-20T18:20:45.364Z,8.20
2019-03-20T18:23:16.331Z,10.13
2019-03-20T18:25:47.294Z,9.90
2019-03-20T18:28:18.186Z,9.73
2019-03-20T18:30:49.117Z,8.33
2019-03-20T18:33:20.366Z,10.68
2019-03-20T18:35:51.153Z,9.65
2019-03-20T18:38:22.014Z,9.28
2019-03-20T18:40:53.236Z,9.37
2019-03-20T18:43:24.096Z,8.98
2019-03-20T18:45:55.025Z,10.20
2019-03-20T18:48:26.200Z,11.03
2019-03-20T18:50:57.023Z,10.90
2019-03-20T18:53:27.884Z,10.95
2019-03-20T18:55:58.732Z,10.48
2019-03-20T18:58:29.499Z,8.33
2019-03-20T19:01:00.404Z,10.95
2019-03-20T19:03:31.411Z,13.07
2019-03-20T19:06:05.917Z,8.85
2019-03-20T19:08:36.797Z,8.65
2019-03-20T19:11:07.721Z,10.08
2019-03-20T19:13:38.582Z,7.90
2019-03-20T19:16:09.455Z,10.23
2019-03-20T19:18:40.400Z,8.80
2019-03-20T19:21:11.518Z,9.48
2019-03-20T19:23:42.445Z,13.60
2019-03-20T19:26:13.672Z,10.72
2019-03-20T19:28:44.449Z,10.97
2019-03-20T19:31:15.262Z,10.00
2019-03-20T19:33:46.019Z,7.95
2019-03-20T19:36:16.762Z,9.30
2019-03-20T19:38:47.635Z,8.83
2019-03-20T19:41:18.706Z,9.23
2019-03-20T19:43:49.491Z,8.90
2019-03-20T19:46:20.340Z,10.38
2019-03-20T19:48:51.121Z,11.95
2019-03-20T19:51:21.939Z,11.35
2019-03-20T19:53:52.797Z,9.78
2019-03-20T19:56:23.581Z,8.17
2019-03-20T19:58:54.342Z,12.13
2019-03-20T20:01:26.192Z,9.43
2019-03-20T20:03:57.172Z,9.00
2019-03-20T20:06:27.982Z,8.90
2019-03-20T20:08:58.813Z,9.85
2019-03-20T20:11:29.525Z,10.27
2019-03-20T20:14:00.296Z,10.72
2019-03-20T20:16:31.117Z,10.08
2019-03-20T20:19:01.876Z,13.10
2019-03-20T20:21:32.647Z,11.70
2019-03-20T20:24:03.425Z,11.80
2019-03-20T20:26:34.221Z,12.70
2019-03-20T20:29:05.425Z,10.80
2019-03-20T20:31:36.477Z,10.95
2019-03-20T20:34:07.536Z,12.15
2019-03-20T20:36:38.336Z,13.03
2019-03-20T20:39:09.193Z,11.97
2019-03-20T20:41:40.010Z,12.03
2019-03-20T20:44:10.837Z,13.32
2019-03-20T20:46:41.586Z,13.55
2019-03-20T20:49:12.621Z,11.27
2019-03-20T20:51:43.366Z,13.43
2019-03-20T20:54:14.417Z,12.05
2019-03-20T20:56:45.222Z,11.80
2019-03-20T20:59:25.463Z,12.50
2019-03-20T21:01:56.371Z,11.28
2019-03-20T21:04:27.457Z,13.47
2019-03-20T21:06:58.220Z,13.35
2019-03-20T21:09:29.049Z,13.70
2019-03-20T21:12:00.186Z,13.80
2019-03-20T21:14:30.966Z,12.90
2019-03-20T21:17:02.356Z,13.97
2019-03-20T21:19:32.918Z,14.63
2019-03-20T21:22:42.167Z,12.47
2019-03-20T21:25:14.733Z,14.18
2019-03-20T21:28:30.381Z,14.98
2019-03-20T21:31:18.466Z,12.78
2019-03-20T21:34:18.402Z,12.73
2019-03-20T21:37:38.756Z,14.25
2019-03-20T21:40:11.350Z,14.28
2019-03-20T21:43:44.886Z,14.63
2019-03-20T21:46:47.262Z,12.13
2019-03-20T21:49:18.553Z,15.60
2019-03-20T21:51:49.984Z,16.10
2019-03-20T21:54:48.206Z,14.73
2019-03-20T21:58:02.502Z,16.75
2019-03-20T22:01:26.898Z,19.35
2019-03-20T22:03:58.646Z,15.78
2019-03-20T22:07:07.895Z,18.25
2019-03-20T22:10:34.281Z,15.38
2019-03-20T22:13:24.486Z,15.93
2019-03-20T22:16:38.447Z,16.10
2019-03-20T22:19:33.545Z,17.25
2019-03-20T22:22:35.137Z,19.40
2019-03-20T22:25:50.380Z,16.23
2019-03-20T22:28:56.095Z,16.85
2019-03-20T22:31:27.791Z,21.05
2019-03-20T22:34:31.812Z,19.00
2019-03-20T22:37:03.162Z,17.00
2019-03-20T22:40:11.823Z,18.00
2019-03-20T22:42:55.378Z,17.02
2019-03-20T22:46:03.784Z,15.98
2019-03-20T22:49:04.407Z,14.28
2019-03-20T22:52:12.272Z,15.35
2019-03-20T22:55:33.491Z,15.65
2019-03-20T22:58:16.745Z,18.10
2019-03-20T23:00:48.836Z,15.60
2019-03-20T23:03:30.528Z,14.23
2019-03-20T23:06:02.050Z,18.82
2019-03-20T23:08:33.714Z,13.05
2019-03-20T23:11:05.544Z,13.85
2019-03-20T23:13:41.636Z,14.07
2019-03-20T23:16:10.977Z,13.75
2019-03-20T23:18:42.270Z,14.00
2019-03-20T23:21:14.681Z,12.98
2019-03-20T23:23:45.962Z,14.87
2019-03-20T23:26:17.271Z,13.15
2019-03-20T23:28:48.643Z,15.40
2019-03-20T23:31:20.191Z,15.80
2019-03-20T23:33:51.592Z,15.25
2019-03-20T23:36:23.211Z,13.80
2019-03-20T23:38:55.046Z,13.00
2019-03-20T23:41:26.341Z,16.02
2019-03-20T23:43:57.623Z,12.93
2019-03-20T23:46:28.937Z,17.57
2019-03-20T23:49:04.140Z,20.00
2019-03-20T23:51:35.553Z,14.38
2019-03-20T23:54:06.928Z,13.95
2019-03-20T23:56:38.472Z,13.20
2019-03-20T23:59:09.893Z,14.77
